sim
Sign-in with your pilot id or email,
or register
Callsign
Passwort

Schedule Details

Flight Number: DLH2457 (1)
Departure: Oslo Gardermoen Airport (ENGM) at 06:40
Arrival: Munich Airport (EDDM) at 09:00
Route: Lufthansa Passenger Schedule. Enter filed route here before submitting Pirep.

Weather Information
Getting current METAR information for ENGM 212350Z 18010KT CAVOK 12/08 Q1005
Getting current METAR information for EDDM 212350Z 10003KT 7000 2000NE BCFG NSC 09/09 Q1015 NOSIG

Schedule Frequency

Route Map